CheckWX is a tool to help pilots better visualize weather data.  It is not intended as a substitute for an official pre-flight weather briefing.

15:11:15 UTC

OJAI METAR
Queen Alia International Airport
Amman, Jordan
Current

11 mins ago

OJAI 131500Z 23010KT 5000 HZ FEW030 12/06 Q1015 NOSIG
Observed
Dec-13 @ 15:00 UTC
Wind
  • 230° at 10 KTS
Visibility
5,000 meters
Flight Rules
MVFR
Conditions
Haze
Cloud Levels
  • Few at 3,000' AGL
Temperature
12°C / 54°F
Dewpoint
C / 43°F
Humidity
67%
Altimeter
29.97" Hg
Pressure
1014.92 hPa
Previous

1 hour ago

OJAI 131400Z 24012KT 5000 BLDU FEW030 13/06 Q1015 NOSIG
Observed
Dec-13 @ 14:00 UTC
Wind
  • 240° at 12 KTS
Visibility
5,000 meters
Flight Rules
MVFR
Conditions
Blowing Dust
Cloud Levels
  • Few at 3,000' AGL
Temperature
13°C / 55°F
Dewpoint
C / 43°F
Humidity
63%
Altimeter
29.97" Hg
Pressure
1014.92 hPa
Previous

2 hours ago

OJAI 131300Z 25015KT 4000 BLDU FEW030 13/06 Q1015 NOSIG
Observed
Dec-13 @ 13:00 UTC
Wind
  • 250° at 15 KTS
Visibility
4,000 meters
Flight Rules
IFR
Conditions
Blowing Dust
Cloud Levels
  • Few at 3,000' AGL
Temperature
13°C / 55°F
Dewpoint
C / 43°F
Humidity
63%
Altimeter
29.97" Hg
Pressure
1014.92 hPa